sensor_id;sensor_type;location;lat;lon;timestamp;P1;durP1;ratioP1;P2;durP2;ratioP2
44214;SDS011;29884;47.450;19.124;2022-07-29T00:00:07;1.00;;;0.50;;
44214;SDS011;29884;47.450;19.124;2022-07-29T00:02:34;1.13;;;0.35;;
44214;SDS011;29884;47.450;19.124;2022-07-29T00:05:00;0.93;;;0.50;;
44214;SDS011;29884;47.450;19.124;2022-07-29T00:07:26;1.10;;;0.40;;
44214;SDS011;29884;47.450;19.124;2022-07-29T00:09:52;0.55;;;0.40;;
44214;SDS011;29884;47.450;19.124;2022-07-29T00:12:19;2.85;;;0.65;;
44214;SDS011;29884;47.450;19.124;2022-07-29T00:14:46;1.40;;;0.40;;
44214;SDS011;29884;47.450;19.124;2022-07-29T00:17:11;6.47;;;0.50;;
44214;SDS011;29884;47.450;19.124;2022-07-29T00:19:37;1.17;;;0.60;;
44214;SDS011;29884;47.450;19.124;2022-07-29T00:22:03;0.90;;;0.50;;
44214;SDS011;29884;47.450;19.124;2022-07-29T00:24:29;1.00;;;0.50;;
44214;SDS011;29884;47.450;19.124;2022-07-29T00:26:54;0.68;;;0.40;;
44214;SDS011;29884;47.450;19.124;2022-07-29T00:29:20;0.60;;;0.50;;
44214;SDS011;29884;47.450;19.124;2022-07-29T00:31:46;1.17;;;0.40;;
44214;SDS011;29884;47.450;19.124;2022-07-29T00:34:11;0.80;;;0.50;;
44214;SDS011;29884;47.450;19.124;2022-07-29T00:36:56;0.60;;;0.50;;
44214;SDS011;29884;47.450;19.124;2022-07-29T00:39:22;0.52;;;0.40;;
44214;SDS011;29884;47.450;19.124;2022-07-29T00:41:48;1.75;;;0.50;;
44214;SDS011;29884;47.450;19.124;2022-07-29T00:44:14;1.33;;;0.50;;
44214;SDS011;29884;47.450;19.124;2022-07-29T00:46:40;0.60;;;0.50;;
44214;SDS011;29884;47.450;19.124;2022-07-29T00:49:05;2.05;;;0.50;;
44214;SDS011;29884;47.450;19.124;2022-07-29T00:51:35;0.70;;;0.40;;
44214;SDS011;29884;47.450;19.124;2022-07-29T00:54:02;0.80;;;0.50;;
44214;SDS011;29884;47.450;19.124;2022-07-29T00:56:29;1.08;;;0.50;;
44214;SDS011;29884;47.450;19.124;2022-07-29T00:58:56;0.77;;;0.50;;
44214;SDS011;29884;47.450;19.124;2022-07-29T01:01:22;0.95;;;0.60;;
44214;SDS011;29884;47.450;19.124;2022-07-29T01:03:48;0.73;;;0.40;;
44214;SDS011;29884;47.450;19.124;2022-07-29T01:06:15;0.93;;;0.50;;
44214;SDS011;29884;47.450;19.124;2022-07-29T01:08:43;0.60;;;0.50;;
44214;SDS011;29884;47.450;19.124;2022-07-29T01:11:12;0.70;;;0.40;;
44214;SDS011;29884;47.450;19.124;2022-07-29T01:13:41;0.65;;;0.45;;
44214;SDS011;29884;47.450;19.124;2022-07-29T01:16:18;0.70;;;0.50;;
44214;SDS011;29884;47.450;19.124;2022-07-29T01:18:51;1.23;;;0.60;;
44214;SDS011;29884;47.450;19.124;2022-07-29T01:27:38;0.88;;;0.52;;
44214;SDS011;29884;47.450;19.124;2022-07-29T01:30:24;0.80;;;0.50;;
44214;SDS011;29884;47.450;19.124;2022-07-29T01:32:54;2.47;;;0.50;;
44214;SDS011;29884;47.450;19.124;2022-07-29T01:35:25;1.23;;;0.50;;
44214;SDS011;29884;47.450;19.124;2022-07-29T01:40:33;3.63;;;0.50;;
44214;SDS011;29884;47.450;19.124;2022-07-29T01:43:05;1.20;;;0.57;;
44214;SDS011;29884;47.450;19.124;2022-07-29T01:45:39;0.75;;;0.60;;
44214;SDS011;29884;47.450;19.124;2022-07-29T01:48:24;1.10;;;0.50;;
44214;SDS011;29884;47.450;19.124;2022-07-29T01:51:02;1.48;;;0.68;;
44214;SDS011;29884;47.450;19.124;2022-07-29T01:56:39;0.90;;;0.60;;
44214;SDS011;29884;47.450;19.124;2022-07-29T01:59:07;1.35;;;0.90;;
44214;SDS011;29884;47.450;19.124;2022-07-29T02:01:34;0.60;;;0.50;;
44214;SDS011;29884;47.450;19.124;2022-07-29T02:04:03;1.63;;;0.60;;
44214;SDS011;29884;47.450;19.124;2022-07-29T02:06:30;0.82;;;0.70;;
44214;SDS011;29884;47.450;19.124;2022-07-29T02:08:58;0.90;;;0.55;;
44214;SDS011;29884;47.450;19.124;2022-07-29T02:11:25;2.00;;;0.70;;
44214;SDS011;29884;47.450;19.124;2022-07-29T02:13:52;0.80;;;0.50;;
44214;SDS011;29884;47.450;19.124;2022-07-29T02:16:20;3.45;;;0.77;;
44214;SDS011;29884;47.450;19.124;2022-07-29T02:18:47;0.93;;;0.60;;
44214;SDS011;29884;47.450;19.124;2022-07-29T02:21:15;1.27;;;0.70;;
44214;SDS011;29884;47.450;19.124;2022-07-29T02:23:46;1.55;;;0.60;;
44214;SDS011;29884;47.450;19.124;2022-07-29T02:26:14;2.35;;;0.70;;
44214;SDS011;29884;47.450;19.124;2022-07-29T02:28:44;2.15;;;0.70;;
44214;SDS011;29884;47.450;19.124;2022-07-29T02:31:11;1.17;;;0.60;;
44214;SDS011;29884;47.450;19.124;2022-07-29T02:33:38;2.65;;;0.63;;
44214;SDS011;29884;47.450;19.124;2022-07-29T02:36:06;3.53;;;0.80;;
44214;SDS011;29884;47.450;19.124;2022-07-29T02:38:32;2.55;;;0.80;;
44214;SDS011;29884;47.450;19.124;2022-07-29T02:41:20;1.75;;;0.70;;
44214;SDS011;29884;47.450;19.124;2022-07-29T02:43:56;2.67;;;0.88;;
44214;SDS011;29884;47.450;19.124;2022-07-29T02:46:30;1.08;;;0.80;;
44214;SDS011;29884;47.450;19.124;2022-07-29T02:49:04;0.90;;;0.68;;
44214;SDS011;29884;47.450;19.124;2022-07-29T02:54:25;1.08;;;0.60;;
44214;SDS011;29884;47.450;19.124;2022-07-29T02:56:51;1.00;;;0.60;;
44214;SDS011;29884;47.450;19.124;2022-07-29T02:59:21;0.85;;;0.60;;
44214;SDS011;29884;47.450;19.124;2022-07-29T03:01:49;1.52;;;0.80;;
44214;SDS011;29884;47.450;19.124;2022-07-29T03:04:17;0.80;;;0.60;;
44214;SDS011;29884;47.450;19.124;2022-07-29T03:06:45;0.88;;;0.60;;
44214;SDS011;29884;47.450;19.124;2022-07-29T03:09:11;1.48;;;0.63;;
44214;SDS011;29884;47.450;19.124;2022-07-29T03:11:39;1.23;;;0.70;;
44214;SDS011;29884;47.450;19.124;2022-07-29T03:14:06;3.55;;;0.65;;
44214;SDS011;29884;47.450;19.124;2022-07-29T03:16:33;2.38;;;0.60;;
44214;SDS011;29884;47.450;19.124;2022-07-29T03:19:01;1.33;;;0.65;;
44214;SDS011;29884;47.450;19.124;2022-07-29T03:21:29;1.52;;;0.60;;
44214;SDS011;29884;47.450;19.124;2022-07-29T03:23:55;1.35;;;0.70;;
44214;SDS011;29884;47.450;19.124;2022-07-29T03:26:20;1.08;;;0.70;;
44214;SDS011;29884;47.450;19.124;2022-07-29T03:28:46;3.78;;;0.70;;
44214;SDS011;29884;47.450;19.124;2022-07-29T03:31:12;3.15;;;0.70;;
44214;SDS011;29884;47.450;19.124;2022-07-29T03:33:38;3.03;;;0.70;;
44214;SDS011;29884;47.450;19.124;2022-07-29T03:36:04;3.17;;;0.70;;
44214;SDS011;29884;47.450;19.124;2022-07-29T03:38:30;1.35;;;0.70;;
44214;SDS011;29884;47.450;19.124;2022-07-29T03:41:01;1.75;;;0.70;;
44214;SDS011;29884;47.450;19.124;2022-07-29T03:43:32;2.60;;;0.73;;
44214;SDS011;29884;47.450;19.124;2022-07-29T03:46:00;1.20;;;0.60;;
44214;SDS011;29884;47.450;19.124;2022-07-29T03:48:28;1.15;;;0.60;;
44214;SDS011;29884;47.450;19.124;2022-07-29T03:50:57;0.82;;;0.60;;
44214;SDS011;29884;47.450;19.124;2022-07-29T03:53:23;2.15;;;0.60;;
44214;SDS011;29884;47.450;19.124;2022-07-29T03:55:50;1.23;;;0.60;;
44214;SDS011;29884;47.450;19.124;2022-07-29T03:58:19;0.80;;;0.50;;
44214;SDS011;29884;47.450;19.124;2022-07-29T04:00:46;3.00;;;0.60;;
44214;SDS011;29884;47.450;19.124;2022-07-29T04:03:12;1.48;;;0.70;;
44214;SDS011;29884;47.450;19.124;2022-07-29T04:05:38;1.00;;;0.60;;
44214;SDS011;29884;47.450;19.124;2022-07-29T04:08:04;0.88;;;0.60;;
44214;SDS011;29884;47.450;19.124;2022-07-29T04:10:30;1.10;;;0.60;;
44214;SDS011;29884;47.450;19.124;2022-07-29T04:12:56;1.38;;;0.60;;
44214;SDS011;29884;47.450;19.124;2022-07-29T04:15:22;1.48;;;0.63;;
44214;SDS011;29884;47.450;19.124;2022-07-29T04:17:47;1.05;;;0.70;;
44214;SDS011;29884;47.450;19.124;2022-07-29T04:20:13;1.13;;;0.60;;
44214;SDS011;29884;47.450;19.124;2022-07-29T04:22:39;1.70;;;0.60;;
44214;SDS011;29884;47.450;19.124;2022-07-29T04:25:05;1.83;;;0.60;;
44214;SDS011;29884;47.450;19.124;2022-07-29T04:27:31;5.00;;;0.70;;
44214;SDS011;29884;47.450;19.124;2022-07-29T04:29:57;1.10;;;0.60;;
44214;SDS011;29884;47.450;19.124;2022-07-29T04:32:23;0.88;;;0.60;;
44214;SDS011;29884;47.450;19.124;2022-07-29T04:34:50;1.23;;;0.73;;
44214;SDS011;29884;47.450;19.124;2022-07-29T04:37:15;0.88;;;0.68;;
44214;SDS011;29884;47.450;19.124;2022-07-29T04:39:41;0.90;;;0.60;;
44214;SDS011;29884;47.450;19.124;2022-07-29T04:42:07;2.33;;;0.77;;
44214;SDS011;29884;47.450;19.124;2022-07-29T04:44:32;1.80;;;0.70;;
44214;SDS011;29884;47.450;19.124;2022-07-29T04:46:58;1.67;;;0.70;;
44214;SDS011;29884;47.450;19.124;2022-07-29T04:49:24;2.58;;;0.68;;
44214;SDS011;29884;47.450;19.124;2022-07-29T04:51:50;1.02;;;0.60;;
44214;SDS011;29884;47.450;19.124;2022-07-29T04:54:16;1.50;;;0.70;;
44214;SDS011;29884;47.450;19.124;2022-07-29T04:56:42;3.13;;;0.70;;
44214;SDS011;29884;47.450;19.124;2022-07-29T04:59:07;1.65;;;0.60;;
44214;SDS011;29884;47.450;19.124;2022-07-29T05:01:33;1.90;;;0.60;;
44214;SDS011;29884;47.450;19.124;2022-07-29T05:03:59;1.52;;;0.60;;
44214;SDS011;29884;47.450;19.124;2022-07-29T05:06:25;2.03;;;0.80;;
44214;SDS011;29884;47.450;19.124;2022-07-29T05:08:50;0.98;;;0.63;;
44214;SDS011;29884;47.450;19.124;2022-07-29T05:11:16;3.00;;;0.65;;
44214;SDS011;29884;47.450;19.124;2022-07-29T05:13:42;2.67;;;0.70;;
44214;SDS011;29884;47.450;19.124;2022-07-29T05:16:08;3.75;;;0.80;;
44214;SDS011;29884;47.450;19.124;2022-07-29T05:18:34;4.75;;;0.70;;
44214;SDS011;29884;47.450;19.124;2022-07-29T05:20:59;1.00;;;0.60;;
44214;SDS011;29884;47.450;19.124;2022-07-29T05:23:25;3.42;;;0.70;;
44214;SDS011;29884;47.450;19.124;2022-07-29T05:25:51;1.58;;;0.75;;
44214;SDS011;29884;47.450;19.124;2022-07-29T05:28:17;0.95;;;0.68;;
44214;SDS011;29884;47.450;19.124;2022-07-29T05:30:42;1.35;;;0.60;;
44214;SDS011;29884;47.450;19.124;2022-07-29T05:33:09;1.48;;;0.80;;
44214;SDS011;29884;47.450;19.124;2022-07-29T05:35:35;2.00;;;0.70;;
44214;SDS011;29884;47.450;19.124;2022-07-29T05:38:02;0.80;;;0.60;;
44214;SDS011;29884;47.450;19.124;2022-07-29T05:40:28;1.05;;;0.60;;
44214;SDS011;29884;47.450;19.124;2022-07-29T05:42:55;1.08;;;0.70;;
44214;SDS011;29884;47.450;19.124;2022-07-29T05:45:21;1.48;;;0.70;;
44214;SDS011;29884;47.450;19.124;2022-07-29T05:47:48;1.13;;;0.60;;
44214;SDS011;29884;47.450;19.124;2022-07-29T05:50:14;1.13;;;0.70;;
44214;SDS011;29884;47.450;19.124;2022-07-29T05:52:39;1.10;;;0.60;;
44214;SDS011;29884;47.450;19.124;2022-07-29T05:55:05;0.85;;;0.60;;
44214;SDS011;29884;47.450;19.124;2022-07-29T05:57:31;1.92;;;0.70;;
44214;SDS011;29884;47.450;19.124;2022-07-29T05:59:57;2.90;;;0.70;;
44214;SDS011;29884;47.450;19.124;2022-07-29T06:02:23;1.75;;;0.70;;
44214;SDS011;29884;47.450;19.124;2022-07-29T06:04:49;1.55;;;0.60;;
44214;SDS011;29884;47.450;19.124;2022-07-29T06:07:15;1.45;;;0.60;;
44214;SDS011;29884;47.450;19.124;2022-07-29T06:09:41;1.27;;;0.60;;
44214;SDS011;29884;47.450;19.124;2022-07-29T06:12:07;1.88;;;0.70;;
44214;SDS011;29884;47.450;19.124;2022-07-29T06:14:33;1.23;;;0.70;;
44214;SDS011;29884;47.450;19.124;2022-07-29T06:17:00;5.38;;;0.70;;
44214;SDS011;29884;47.450;19.124;2022-07-29T06:19:26;1.77;;;0.77;;
44214;SDS011;29884;47.450;19.124;2022-07-29T06:21:51;1.20;;;0.80;;
44214;SDS011;29884;47.450;19.124;2022-07-29T06:24:17;1.00;;;0.70;;
44214;SDS011;29884;47.450;19.124;2022-07-29T06:26:43;1.40;;;0.70;;
44214;SDS011;29884;47.450;19.124;2022-07-29T06:29:09;2.45;;;0.68;;
44214;SDS011;29884;47.450;19.124;2022-07-29T06:31:39;3.85;;;0.60;;
44214;SDS011;29884;47.450;19.124;2022-07-29T06:34:05;3.83;;;0.60;;
44214;SDS011;29884;47.450;19.124;2022-07-29T06:36:33;1.60;;;0.65;;
44214;SDS011;29884;47.450;19.124;2022-07-29T06:39:00;0.82;;;0.60;;
44214;SDS011;29884;47.450;19.124;2022-07-29T06:41:26;1.38;;;0.70;;
44214;SDS011;29884;47.450;19.124;2022-07-29T06:43:52;0.93;;;0.70;;
44214;SDS011;29884;47.450;19.124;2022-07-29T06:46:18;1.10;;;0.65;;
44214;SDS011;29884;47.450;19.124;2022-07-29T06:48:44;0.82;;;0.60;;
44214;SDS011;29884;47.450;19.124;2022-07-29T06:51:11;1.00;;;0.65;;
44214;SDS011;29884;47.450;19.124;2022-07-29T06:53:36;0.90;;;0.60;;
44214;SDS011;29884;47.450;19.124;2022-07-29T06:56:03;2.53;;;0.75;;
44214;SDS011;29884;47.450;19.124;2022-07-29T06:58:30;1.40;;;0.77;;
44214;SDS011;29884;47.450;19.124;2022-07-29T07:00:57;1.42;;;0.60;;
44214;SDS011;29884;47.450;19.124;2022-07-29T07:03:23;1.13;;;0.70;;
44214;SDS011;29884;47.450;19.124;2022-07-29T07:05:50;1.42;;;0.70;;
44214;SDS011;29884;47.450;19.124;2022-07-29T07:08:17;7.70;;;0.95;;
44214;SDS011;29884;47.450;19.124;2022-07-29T07:10:44;0.80;;;0.70;;
44214;SDS011;29884;47.450;19.124;2022-07-29T07:13:11;0.95;;;0.70;;
44214;SDS011;29884;47.450;19.124;2022-07-29T07:15:37;1.00;;;0.73;;
44214;SDS011;29884;47.450;19.124;2022-07-29T07:18:03;1.00;;;0.80;;
44214;SDS011;29884;47.450;19.124;2022-07-29T07:20:31;2.55;;;0.70;;
44214;SDS011;29884;47.450;19.124;2022-07-29T07:22:57;1.83;;;0.80;;
44214;SDS011;29884;47.450;19.124;2022-07-29T07:25:23;1.17;;;0.70;;
44214;SDS011;29884;47.450;19.124;2022-07-29T07:27:49;1.40;;;0.70;;
44214;SDS011;29884;47.450;19.124;2022-07-29T07:30:15;1.67;;;0.70;;
44214;SDS011;29884;47.450;19.124;2022-07-29T07:32:40;1.20;;;0.70;;
44214;SDS011;29884;47.450;19.124;2022-07-29T07:35:07;1.50;;;0.80;;
44214;SDS011;29884;47.450;19.124;2022-07-29T07:37:34;1.25;;;0.70;;
44214;SDS011;29884;47.450;19.124;2022-07-29T07:40:01;3.53;;;0.80;;
44214;SDS011;29884;47.450;19.124;2022-07-29T07:42:27;1.08;;;0.68;;
44214;SDS011;29884;47.450;19.124;2022-07-29T07:44:53;1.33;;;0.80;;
44214;SDS011;29884;47.450;19.124;2022-07-29T07:47:19;2.40;;;0.80;;
44214;SDS011;29884;47.450;19.124;2022-07-29T07:49:48;1.30;;;0.70;;
44214;SDS011;29884;47.450;19.124;2022-07-29T07:52:17;1.23;;;0.77;;
44214;SDS011;29884;47.450;19.124;2022-07-29T07:54:44;1.05;;;0.70;;
44214;SDS011;29884;47.450;19.124;2022-07-29T07:57:10;1.90;;;1.00;;
44214;SDS011;29884;47.450;19.124;2022-07-29T07:59:36;1.27;;;0.68;;
44214;SDS011;29884;47.450;19.124;2022-07-29T08:02:03;1.00;;;0.60;;
44214;SDS011;29884;47.450;19.124;2022-07-29T08:04:29;2.63;;;0.75;;
44214;SDS011;29884;47.450;19.124;2022-07-29T08:06:55;2.15;;;0.80;;
44214;SDS011;29884;47.450;19.124;2022-07-29T08:09:22;0.90;;;0.70;;
44214;SDS011;29884;47.450;19.124;2022-07-29T08:11:49;1.00;;;0.70;;
44214;SDS011;29884;47.450;19.124;2022-07-29T08:14:15;1.15;;;0.80;;
44214;SDS011;29884;47.450;19.124;2022-07-29T08:16:41;1.17;;;0.80;;
44214;SDS011;29884;47.450;19.124;2022-07-29T08:19:07;1.05;;;0.70;;
44214;SDS011;29884;47.450;19.124;2022-07-29T08:21:34;3.88;;;0.60;;
44214;SDS011;29884;47.450;19.124;2022-07-29T08:24:00;1.00;;;0.65;;
44214;SDS011;29884;47.450;19.124;2022-07-29T08:26:44;2.45;;;0.73;;
44214;SDS011;29884;47.450;19.124;2022-07-29T08:29:10;1.15;;;0.70;;
44214;SDS011;29884;47.450;19.124;2022-07-29T08:31:37;0.70;;;0.60;;
44214;SDS011;29884;47.450;19.124;2022-07-29T08:34:03;0.80;;;0.60;;
44214;SDS011;29884;47.450;19.124;2022-07-29T08:36:29;3.10;;;0.70;;
44214;SDS011;29884;47.450;19.124;2022-07-29T08:38:56;1.05;;;0.68;;
44214;SDS011;29884;47.450;19.124;2022-07-29T08:41:22;2.08;;;0.60;;
44214;SDS011;29884;47.450;19.124;2022-07-29T08:43:49;0.93;;;0.60;;
44214;SDS011;29884;47.450;19.124;2022-07-29T08:46:16;1.45;;;0.60;;
44214;SDS011;29884;47.450;19.124;2022-07-29T08:48:42;1.05;;;0.60;;
44214;SDS011;29884;47.450;19.124;2022-07-29T08:51:08;2.63;;;0.70;;
44214;SDS011;29884;47.450;19.124;2022-07-29T08:53:40;0.95;;;0.60;;
44214;SDS011;29884;47.450;19.124;2022-07-29T08:56:10;1.80;;;0.60;;
44214;SDS011;29884;47.450;19.124;2022-07-29T08:58:38;0.98;;;0.60;;
44214;SDS011;29884;47.450;19.124;2022-07-29T09:01:04;0.85;;;0.50;;
44214;SDS011;29884;47.450;19.124;2022-07-29T09:03:32;2.10;;;0.70;;
44214;SDS011;29884;47.450;19.124;2022-07-29T09:06:01;0.60;;;0.50;;
44214;SDS011;29884;47.450;19.124;2022-07-29T09:08:27;1.08;;;0.57;;
44214;SDS011;29884;47.450;19.124;2022-07-29T09:10:54;1.23;;;0.57;;
44214;SDS011;29884;47.450;19.124;2022-07-29T09:13:23;0.93;;;0.57;;
44214;SDS011;29884;47.450;19.124;2022-07-29T09:15:49;0.70;;;0.50;;
44214;SDS011;29884;47.450;19.124;2022-07-29T09:21:00;1.08;;;0.60;;
44214;SDS011;29884;47.450;19.124;2022-07-29T09:24:00;1.05;;;0.57;;
44214;SDS011;29884;47.450;19.124;2022-07-29T09:26:29;1.67;;;0.50;;
44214;SDS011;29884;47.450;19.124;2022-07-29T09:28:56;0.80;;;0.50;;
44214;SDS011;29884;47.450;19.124;2022-07-29T09:31:33;0.70;;;0.43;;
44214;SDS011;29884;47.450;19.124;2022-07-29T09:33:59;1.15;;;0.50;;
44214;SDS011;29884;47.450;19.124;2022-07-29T09:36:25;1.38;;;0.50;;
44214;SDS011;29884;47.450;19.124;2022-07-29T09:38:58;0.50;;;0.40;;
44214;SDS011;29884;47.450;19.124;2022-07-29T09:41:27;0.52;;;0.40;;
44214;SDS011;29884;47.450;19.124;2022-07-29T09:43:57;0.63;;;0.40;;
44214;SDS011;29884;47.450;19.124;2022-07-29T09:46:24;1.85;;;0.40;;
44214;SDS011;29884;47.450;19.124;2022-07-29T09:49:10;0.40;;;0.40;;
44214;SDS011;29884;47.450;19.124;2022-07-29T09:51:37;1.02;;;0.50;;
44214;SDS011;29884;47.450;19.124;2022-07-29T09:56:48;1.15;;;0.47;;
44214;SDS011;29884;47.450;19.124;2022-07-29T09:59:14;1.95;;;0.32;;
44214;SDS011;29884;47.450;19.124;2022-07-29T10:01:40;0.90;;;0.52;;
44214;SDS011;29884;47.450;19.124;2022-07-29T10:04:06;1.20;;;0.40;;
44214;SDS011;29884;47.450;19.124;2022-07-29T10:06:31;0.50;;;0.40;;
44214;SDS011;29884;47.450;19.124;2022-07-29T10:09:07;0.85;;;0.40;;
44214;SDS011;29884;47.450;19.124;2022-07-29T10:11:36;0.85;;;0.50;;
44214;SDS011;29884;47.450;19.124;2022-07-29T10:14:02;0.60;;;0.40;;
44214;SDS011;29884;47.450;19.124;2022-07-29T10:16:28;1.00;;;0.47;;
44214;SDS011;29884;47.450;19.124;2022-07-29T10:18:58;3.60;;;0.50;;
44214;SDS011;29884;47.450;19.124;2022-07-29T10:21:27;0.80;;;0.35;;
44214;SDS011;29884;47.450;19.124;2022-07-29T10:23:54;0.63;;;0.40;;
44214;SDS011;29884;47.450;19.124;2022-07-29T10:26:22;0.60;;;0.50;;
44214;SDS011;29884;47.450;19.124;2022-07-29T10:28:48;0.50;;;0.40;;
44214;SDS011;29884;47.450;19.124;2022-07-29T10:31:28;0.38;;;0.35;;
44214;SDS011;29884;47.450;19.124;2022-07-29T10:42:54;0.43;;;0.38;;
44214;SDS011;29884;47.450;19.124;2022-07-29T10:45:24;0.75;;;0.50;;
44214;SDS011;29884;47.450;19.124;2022-07-29T10:48:01;3.08;;;0.52;;
44214;SDS011;29884;47.450;19.124;2022-07-29T10:50:44;1.98;;;0.57;;
44214;SDS011;29884;47.450;19.124;2022-07-29T10:53:22;0.52;;;0.40;;
44214;SDS011;29884;47.450;19.124;2022-07-29T10:55:49;0.70;;;0.50;;
44214;SDS011;29884;47.450;19.124;2022-07-29T10:58:20;0.50;;;0.30;;
44214;SDS011;29884;47.450;19.124;2022-07-29T11:00:50;3.22;;;0.30;;
44214;SDS011;29884;47.450;19.124;2022-07-29T11:06:12;0.70;;;0.30;;
44214;SDS011;29884;47.450;19.124;2022-07-29T11:08:39;0.50;;;0.32;;
44214;SDS011;29884;47.450;19.124;2022-07-29T11:13:53;0.40;;;0.30;;
44214;SDS011;29884;47.450;19.124;2022-07-29T11:16:22;0.60;;;0.40;;
44214;SDS011;29884;47.450;19.124;2022-07-29T11:21:36;0.60;;;0.30;;
44214;SDS011;29884;47.450;19.124;2022-07-29T11:26:39;0.40;;;0.40;;
44214;SDS011;29884;47.450;19.124;2022-07-29T11:29:39;0.60;;;0.38;;
44214;SDS011;29884;47.450;19.124;2022-07-29T11:32:08;0.30;;;0.30;;
44214;SDS011;29884;47.450;19.124;2022-07-29T11:34:35;0.95;;;0.40;;
44214;SDS011;29884;47.450;19.124;2022-07-29T11:39:43;0.35;;;0.30;;
44214;SDS011;29884;47.450;19.124;2022-07-29T11:44:56;0.63;;;0.40;;
44214;SDS011;29884;47.450;19.124;2022-07-29T11:47:35;1.95;;;0.40;;
44214;SDS011;29884;47.450;19.124;2022-07-29T11:50:03;0.30;;;0.30;;
44214;SDS011;29884;47.450;19.124;2022-07-29T11:52:34;1.70;;;0.30;;
44214;SDS011;29884;47.450;19.124;2022-07-29T11:55:14;3.38;;;0.40;;
44214;SDS011;29884;47.450;19.124;2022-07-29T11:57:54;0.40;;;0.30;;
44214;SDS011;29884;47.450;19.124;2022-07-29T12:03:23;0.40;;;0.30;;
44214;SDS011;29884;47.450;19.124;2022-07-29T12:05:53;0.90;;;0.40;;
44214;SDS011;29884;47.450;19.124;2022-07-29T12:08:20;0.57;;;0.30;;
44214;SDS011;29884;47.450;19.124;2022-07-29T12:10:48;2.97;;;0.40;;
44214;SDS011;29884;47.450;19.124;2022-07-29T12:13:15;0.30;;;0.25;;
44214;SDS011;29884;47.450;19.124;2022-07-29T12:15:51;0.45;;;0.30;;
44214;SDS011;29884;47.450;19.124;2022-07-29T12:18:25;0.63;;;0.45;;
44214;SDS011;29884;47.450;19.124;2022-07-29T12:20:58;1.35;;;0.40;;
44214;SDS011;29884;47.450;19.124;2022-07-29T12:23:27;1.50;;;0.40;;
44214;SDS011;29884;47.450;19.124;2022-07-29T12:25:52;1.48;;;0.40;;
44214;SDS011;29884;47.450;19.124;2022-07-29T12:28:18;0.40;;;0.30;;
44214;SDS011;29884;47.450;19.124;2022-07-29T12:30:47;0.60;;;0.40;;
44214;SDS011;29884;47.450;19.124;2022-07-29T12:33:16;0.40;;;0.30;;
44214;SDS011;29884;47.450;19.124;2022-07-29T12:35:49;0.40;;;0.30;;
44214;SDS011;29884;47.450;19.124;2022-07-29T12:38:18;0.68;;;0.30;;
44214;SDS011;29884;47.450;19.124;2022-07-29T12:40:45;0.80;;;0.32;;
44214;SDS011;29884;47.450;19.124;2022-07-29T12:43:16;0.40;;;0.35;;
44214;SDS011;29884;47.450;19.124;2022-07-29T12:45:50;0.75;;;0.40;;
44214;SDS011;29884;47.450;19.124;2022-07-29T12:50:59;1.77;;;0.50;;
44214;SDS011;29884;47.450;19.124;2022-07-29T12:53:26;0.40;;;0.40;;
44214;SDS011;29884;47.450;19.124;2022-07-29T12:55:53;0.30;;;0.28;;
44214;SDS011;29884;47.450;19.124;2022-07-29T13:03:50;1.70;;;0.30;;
44214;SDS011;29884;47.450;19.124;2022-07-29T13:09:14;0.82;;;0.30;;
44214;SDS011;29884;47.450;19.124;2022-07-29T13:11:41;2.67;;;0.40;;
44214;SDS011;29884;47.450;19.124;2022-07-29T13:19:35;0.28;;;0.28;;
44214;SDS011;29884;47.450;19.124;2022-07-29T13:22:08;0.98;;;0.40;;
44214;SDS011;29884;47.450;19.124;2022-07-29T13:27:16;0.60;;;0.35;;
44214;SDS011;29884;47.450;19.124;2022-07-29T13:29:43;1.02;;;0.47;;
44214;SDS011;29884;47.450;19.124;2022-07-29T13:32:09;0.57;;;0.40;;
44214;SDS011;29884;47.450;19.124;2022-07-29T13:34:34;0.70;;;0.30;;
44214;SDS011;29884;47.450;19.124;2022-07-29T13:37:00;1.27;;;0.30;;
44214;SDS011;29884;47.450;19.124;2022-07-29T13:39:26;0.50;;;0.40;;
44214;SDS011;29884;47.450;19.124;2022-07-29T13:41:51;1.65;;;0.40;;
44214;SDS011;29884;47.450;19.124;2022-07-29T13:44:17;0.38;;;0.30;;
44214;SDS011;29884;47.450;19.124;2022-07-29T13:46:43;0.57;;;0.30;;
44214;SDS011;29884;47.450;19.124;2022-07-29T13:49:09;0.57;;;0.40;;
44214;SDS011;29884;47.450;19.124;2022-07-29T13:51:36;0.40;;;0.30;;
44214;SDS011;29884;47.450;19.124;2022-07-29T13:54:02;0.70;;;0.40;;
44214;SDS011;29884;47.450;19.124;2022-07-29T13:56:28;0.70;;;0.38;;
44214;SDS011;29884;47.450;19.124;2022-07-29T13:58:54;1.20;;;0.40;;
44214;SDS011;29884;47.450;19.124;2022-07-29T14:01:20;0.60;;;0.60;;
44214;SDS011;29884;47.450;19.124;2022-07-29T14:03:46;0.82;;;0.40;;
44214;SDS011;29884;47.450;19.124;2022-07-29T14:06:11;2.65;;;0.40;;
44214;SDS011;29884;47.450;19.124;2022-07-29T14:08:38;0.50;;;0.40;;
44214;SDS011;29884;47.450;19.124;2022-07-29T14:11:04;0.47;;;0.30;;
44214;SDS011;29884;47.450;19.124;2022-07-29T14:13:30;0.43;;;0.40;;
44214;SDS011;29884;47.450;19.124;2022-07-29T14:15:56;0.70;;;0.30;;
44214;SDS011;29884;47.450;19.124;2022-07-29T14:18:22;0.60;;;0.30;;
44214;SDS011;29884;47.450;19.124;2022-07-29T14:20:48;0.52;;;0.30;;
44214;SDS011;29884;47.450;19.124;2022-07-29T14:23:14;0.85;;;0.32;;
44214;SDS011;29884;47.450;19.124;2022-07-29T14:25:40;0.50;;;0.40;;
44214;SDS011;29884;47.450;19.124;2022-07-29T14:28:06;0.50;;;0.40;;
44214;SDS011;29884;47.450;19.124;2022-07-29T14:30:32;0.60;;;0.40;;
44214;SDS011;29884;47.450;19.124;2022-07-29T14:32:57;0.60;;;0.40;;
44214;SDS011;29884;47.450;19.124;2022-07-29T14:35:23;0.57;;;0.38;;
44214;SDS011;29884;47.450;19.124;2022-07-29T14:37:49;0.50;;;0.30;;
44214;SDS011;29884;47.450;19.124;2022-07-29T14:40:15;2.22;;;0.38;;
44214;SDS011;29884;47.450;19.124;2022-07-29T14:42:41;0.60;;;0.40;;
44214;SDS011;29884;47.450;19.124;2022-07-29T14:45:07;0.57;;;0.38;;
44214;SDS011;29884;47.450;19.124;2022-07-29T14:47:34;0.28;;;0.28;;
44214;SDS011;29884;47.450;19.124;2022-07-29T14:50:00;1.17;;;0.65;;
44214;SDS011;29884;47.450;19.124;2022-07-29T14:52:26;0.40;;;0.40;;
44214;SDS011;29884;47.450;19.124;2022-07-29T14:54:52;0.47;;;0.40;;
44214;SDS011;29884;47.450;19.124;2022-07-29T14:57:17;0.60;;;0.40;;
44214;SDS011;29884;47.450;19.124;2022-07-29T14:59:43;0.60;;;0.30;;
44214;SDS011;29884;47.450;19.124;2022-07-29T15:02:09;0.63;;;0.40;;
44214;SDS011;29884;47.450;19.124;2022-07-29T15:04:34;0.40;;;0.40;;
44214;SDS011;29884;47.450;19.124;2022-07-29T15:07:00;1.40;;;0.35;;
44214;SDS011;29884;47.450;19.124;2022-07-29T15:09:26;0.73;;;0.43;;
44214;SDS011;29884;47.450;19.124;2022-07-29T15:11:51;0.60;;;0.40;;
44214;SDS011;29884;47.450;19.124;2022-07-29T15:14:17;0.70;;;0.38;;
44214;SDS011;29884;47.450;19.124;2022-07-29T15:16:43;0.68;;;0.30;;
44214;SDS011;29884;47.450;19.124;2022-07-29T15:19:09;0.80;;;0.50;;
44214;SDS011;29884;47.450;19.124;2022-07-29T15:21:34;3.08;;;0.40;;
44214;SDS011;29884;47.450;19.124;2022-07-29T15:24:00;0.43;;;0.38;;
44214;SDS011;29884;47.450;19.124;2022-07-29T15:26:26;0.55;;;0.40;;
44214;SDS011;29884;47.450;19.124;2022-07-29T15:28:52;1.40;;;0.40;;
44214;SDS011;29884;47.450;19.124;2022-07-29T15:31:17;0.50;;;0.40;;
44214;SDS011;29884;47.450;19.124;2022-07-29T15:33:46;2.38;;;0.40;;
44214;SDS011;29884;47.450;19.124;2022-07-29T15:36:11;0.40;;;0.30;;
44214;SDS011;29884;47.450;19.124;2022-07-29T15:38:39;0.88;;;0.40;;
44214;SDS011;29884;47.450;19.124;2022-07-29T15:41:05;0.57;;;0.40;;
44214;SDS011;29884;47.450;19.124;2022-07-29T15:43:32;0.57;;;0.40;;